FIMP METAR and TAF | Updated Today

FIMP METAR

Sir Seewoosagur Ramgoolam International Airport

Observation time: 80 min. ago

FIMP 291100Z 14012G25KT 9999 VCSH BKN016 24/19 Q1019

Need help? Read our tutorial on how to read METARs or read the parsed version below.

Sir Seewoosagur Ramgoolam International Airport (FIMP) METAR

  • Weather conditions on Sun, 29 May 2022 11:00:00 +0000 (80 min. ago):
  • Present conditions: In the vicinity, showers of
  • Clouds: Broken sky at 488 meters
  • Visibility: Greater than 10 km
  • Wind: 140 degrees at 12 knots
  • Temperature: 24 celsius
  • Dew point: 19 celsius
  • Pressure: 1019 millibars
  • Remarks: None


Useful to know...

FIMP TAF

Sir Seewoosagur Ramgoolam International Airport

TAF COR FIMP 291115Z 2912/3018 14012G25KT 9999 BKN016 TEMPO 2912/3000 7000 -SHRA FEW010 BKN015
Observation time: 65 min. ago
Need help? Read our tutorial on how to read TAFs or read the parsed version below.

Parsed version of TAF for Sir Seewoosagur Ramgoolam International Airport (FIMP)

  • From 29 May at 12:00 UTC, to day 30 of the month at 18:00 UTC
  • Clouds: Broken sky at 488 meters
  • Visibility: Greater than 10 km
  • Wind: 140 degrees at 12
  • Expected to arise temporarily, from 29 May at 12:00 UTC, to day 30 of the month at 00:00 UTC
  • Clouds: A few at 305 meters; broken sky at 457 meters
  • Visibility: 7000 meters
  • Other: Light showers of rain

Airports near FIMP

No airports found within 100nm radius.